Time;durP1;ratioP1;P1;durP2;ratioP2;P2;SDS_P1;SDS_P2;PMS_P1;PMS_P2;Temp;Humidity;BMP_temperature;BMP_pressure;BME280_temperature;BME280_humidity;BME280_pressure;Samples;Min_cycle;Max_cycle;Signal;HPM_P1;HPM_P2
2023/02/06 00:00:46;;;;;;;5.68;2.00;;;15.30;59.40;;;;;;5035276;28;20025;-75
2023/02/06 00:03:11;;;;;;;6.93;2.10;;;15.30;59.40;;;;;;5035085;28;20055;-74
2023/02/06 00:05:37;;;;;;;5.03;1.83;;;15.30;59.30;;;;;;5035076;28;20033;-74
2023/02/06 00:08:03;;;;;;;5.45;1.67;;;15.30;59.40;;;;;;5035308;28;20100;-74
2023/02/06 00:10:29;;;;;;;5.45;2.10;;;15.30;59.40;;;;;;5035067;28;20432;-76
2023/02/06 00:12:55;;;;;;;3.65;1.83;;;15.30;59.40;;;;;;5017252;28;20117;-72
2023/02/06 00:15:21;;;;;;;5.15;2.05;;;15.30;59.40;;;;;;5034352;28;20033;-73
2023/02/06 00:17:46;;;;;;;5.38;2.20;;;15.20;59.40;;;;;;5034913;28;20036;-75
2023/02/06 00:20:12;;;;;;;4.65;1.98;;;15.20;59.40;;;;;;5034916;28;20036;-72
2023/02/06 00:22:39;;;;;;;3.35;1.50;;;15.20;60.00;;;;;;5034804;28;20101;-74
2023/02/06 00:25:05;;;;;;;4.30;1.88;;;15.20;59.30;;;;;;5034794;28;20030;-72
2023/02/06 00:27:30;;;;;;;4.82;1.75;;;15.20;59.30;;;;;;5034808;28;20096;-73
2023/02/06 00:29:56;;;;;;;4.47;2.25;;;15.20;60.00;;;;;;5034764;28;22491;-73
2023/02/06 00:32:21;;;;;;;6.45;2.50;;;15.30;59.40;;;;;;5034767;28;20021;-72
2023/02/06 00:34:47;;;;;;;4.43;1.83;;;15.20;59.30;;;;;;5034676;28;20029;-73
2023/02/06 00:37:13;;;;;;;3.35;1.63;;;15.20;59.40;;;;;;5034497;28;20028;-73
2023/02/06 00:39:39;;;;;;;3.60;1.88;;;15.20;59.40;;;;;;5034482;28;20037;-73
2023/02/06 00:42:05;;;;;;;5.18;1.88;;;15.20;59.40;;;;;;5034410;28;20026;-73
2023/02/06 00:44:31;;;;;;;5.97;2.20;;;15.20;59.40;;;;;;5034521;28;20112;-72
2023/02/06 00:46:57;;;;;;;5.28;1.90;;;15.20;59.50;;;;;;5034420;28;20125;-74
2023/02/06 00:49:23;;;;;;;5.03;1.98;;;15.20;59.40;;;;;;5034307;28;20072;-74
2023/02/06 00:51:49;;;;;;;7.18;1.90;;;15.20;59.40;;;;;;5034302;28;20404;-74
2023/02/06 00:54:15;;;;;;;6.07;2.00;;;15.20;59.40;;;;;;5034268;28;20021;-74
2023/02/06 00:56:41;;;;;;;4.90;1.90;;;15.20;59.50;;;;;;5034282;28;20026;-74
2023/02/06 00:59:06;;;;;;;5.03;1.75;;;15.20;59.50;;;;;;5034193;28;20031;-75
2023/02/06 01:01:32;;;;;;;4.85;2.00;;;15.10;67.60;;;;;;5034121;28;20021;-74
2023/02/06 01:03:58;;;;;;;5.15;1.88;;;15.10;60.00;;;;;;5034052;28;20484;-75
2023/02/06 01:06:24;;;;;;;3.63;1.90;;;15.10;59.50;;;;;;5034216;28;20426;-75
2023/02/06 01:08:49;;;;;;;3.88;1.55;;;15.10;59.50;;;;;;5034226;28;20030;-72
2023/02/06 01:11:18;;;;;;;6.20;1.80;;;15.10;59.50;;;;;;5034138;28;20030;-73
2023/02/06 01:13:45;;;;;;;3.53;1.30;;;15.10;59.50;;;;;;5033884;28;20468;-74
2023/02/06 01:16:17;;;;;;;5.32;1.67;;;15.10;59.50;;;;;;5034038;28;20036;-75
2023/02/06 01:18:43;;;;;;;2.72;1.50;;;15.10;59.50;;;;;;5033845;28;20021;-74
2023/02/06 01:21:14;;;;;;;4.57;1.50;;;15.10;60.10;;;;;;5033667;28;20032;-73
2023/02/06 01:23:41;;;;;;;4.80;1.63;;;15.10;59.50;;;;;;5033944;28;20435;-73
2023/02/06 01:26:11;;;;;;;5.22;1.88;;;15.10;59.50;;;;;;5032660;28;20030;-74
2023/02/06 01:28:42;;;;;;;4.43;1.80;;;15.10;59.50;;;;;;5033834;28;20528;-74
2023/02/06 01:31:13;;;;;;;6.38;1.88;;;15.10;59.60;;;;;;5033727;28;20064;-75
2023/02/06 01:33:40;;;;;;;2.67;1.40;;;15.10;59.50;;;;;;5033727;28;20030;-75
2023/02/06 01:36:06;;;;;;;5.53;1.90;;;15.10;59.50;;;;;;5033694;28;20026;-75
2023/02/06 01:38:32;;;;;;;5.05;1.42;;;15.10;59.60;;;;;;5033377;28;20025;-75
2023/02/06 01:41:00;;;;;;;5.65;2.03;;;15.00;59.60;;;;;;5033631;28;20021;-75
2023/02/06 01:43:33;;;;;;;3.70;1.92;;;15.00;59.50;;;;;;5033586;28;20596;-73
2023/02/06 01:45:59;;;;;;;4.38;1.80;;;15.00;59.50;;;;;;5033524;28;20033;-73
2023/02/06 01:48:43;;;;;;;4.28;1.50;;;15.10;59.60;;;;;;5033102;28;20026;-73
2023/02/06 01:51:23;;;;;;;6.45;1.75;;;15.00;59.50;;;;;;5032978;28;20491;-74
2023/02/06 01:53:52;;;;;;;3.75;1.65;;;15.00;59.60;;;;;;5033476;28;20022;-73
2023/02/06 01:56:20;;;;;;;4.77;1.40;;;15.00;59.60;;;;;;5033300;28;20017;-73
2023/02/06 01:58:56;;;;;;;3.58;1.25;;;15.00;59.60;;;;;;5033326;28;20037;-73
2023/02/06 02:01:23;;;;;;;4.30;1.45;;;;;;;;;;5033202;28;20071;-73
2023/02/06 02:03:53;;;;;;;5.47;1.83;;;15.00;59.50;;;;;;5032934;28;20049;-73
2023/02/06 02:06:22;;;;;;;6.10;1.70;;;15.00;59.70;;;;;;5015625;28;20022;-73
2023/02/06 02:08:52;;;;;;;5.03;1.77;;;15.00;59.60;;;;;;5032949;28;20763;-73
2023/02/06 02:11:24;;;;;;;5.25;1.70;;;15.00;59.70;;;;;;5033032;28;20040;-73
2023/02/06 02:13:52;;;;;;;7.43;2.10;;;15.00;59.60;;;;;;5032843;28;20029;-73
2023/02/06 02:16:46;;;;;;;5.85;1.80;;;15.00;59.70;;;;;;5033023;28;20530;-73
2023/02/06 02:19:49;;;;;;;3.58;1.50;;;15.00;59.70;;;;;;5032728;28;20476;-74
2023/02/06 02:22:50;;;;;;;4.35;1.23;;;15.00;59.70;;;;;;5032770;28;20034;-75
2023/02/06 02:26:02;;;;;;;3.47;1.33;;;15.00;59.70;;;;;;5000624;28;20046;-74
2023/02/06 02:29:05;;;;;;;3.00;1.30;;;14.90;59.70;;;;;;5032849;28;20518;-75
2023/02/06 02:31:48;;;;;;;2.67;1.30;;;14.90;59.70;;;;;;5032266;28;20480;-75
2023/02/06 02:34:50;;;;;;;5.22;1.67;;;14.90;59.80;;;;;;5032747;28;20427;-75
2023/02/06 02:37:20;;;;;;;3.58;1.60;;;14.90;59.70;;;;;;5032190;28;20029;-75
2023/02/06 02:40:06;;;;;;;2.60;1.52;;;14.90;59.70;;;;;;5032415;28;20029;-73
2023/02/06 02:43:29;;;;;;;3.70;1.60;;;14.90;59.70;;;;;;5032367;28;20037;-73
2023/02/06 02:46:24;;;;;;;5.28;2.08;;;14.90;59.70;;;;;;4971324;28;20109;-73
2023/02/06 02:48:52;;;;;;;2.60;1.20;;;14.90;59.80;;;;;;4942006;28;20041;-73
2023/02/06 02:51:18;;;;;;;3.72;1.60;;;14.90;59.80;;;;;;5012900;28;20508;-73
2023/02/06 02:53:44;;;;;;;5.88;1.63;;;15.10;59.90;;;;;;5032143;28;20101;-73
2023/02/06 02:56:30;;;;;;;5.47;1.85;;;14.90;59.80;;;;;;5032122;28;20030;-73
2023/02/06 02:59:06;;;;;;;6.70;1.60;;;14.90;59.70;;;;;;5032286;28;20147;-74
2023/02/06 03:01:38;;;;;;;5.22;1.65;;;14.90;68.10;;;;;;5032075;28;20498;-75
2023/02/06 03:04:11;;;;;;;4.43;1.60;;;14.90;59.80;;;;;;5031874;28;20412;-74
2023/02/06 03:06:56;;;;;;;5.35;1.70;;;14.90;59.80;;;;;;5032071;28;20040;-74
2023/02/06 03:09:37;;;;;;;4.78;1.45;;;14.80;59.70;;;;;;5032136;28;20018;-76
2023/02/06 03:12:31;;;;;;;4.15;1.60;;;14.80;59.80;;;;;;5032050;28;20040;-74
2023/02/06 03:15:06;;;;;;;4.45;1.30;;;14.80;59.80;;;;;;5032077;28;20472;-73
2023/02/06 03:17:42;;;;;;;3.10;1.25;;;14.80;59.80;;;;;;5032107;28;20547;-73
2023/02/06 03:20:10;;;;;;;3.78;1.42;;;14.80;59.80;;;;;;5031957;28;20112;-73
2023/02/06 03:22:37;;;;;;;4.05;1.70;;;14.80;59.70;;;;;;5014414;28;20100;-72
2023/02/06 03:25:11;;;;;;;3.08;1.42;;;14.70;59.80;;;;;;5031910;28;20033;-73
2023/02/06 03:27:40;;;;;;;4.72;1.50;;;14.70;59.80;;;;;;5031884;28;20484;-73
2023/02/06 03:30:09;;;;;;;4.82;1.63;;;14.80;59.80;;;;;;5031829;28;20108;-73
2023/02/06 03:32:40;;;;;;;3.28;1.40;;;14.70;59.80;;;;;;5031971;28;20037;-73
2023/02/06 03:35:12;;;;;;;4.47;1.50;;;14.70;60.40;;;;;;5031959;28;20017;-75
2023/02/06 03:37:38;;;;;;;5.88;1.85;;;14.80;60.50;;;;;;5031930;28;20105;-74
2023/02/06 03:40:06;;;;;;;3.80;1.73;;;14.70;59.80;;;;;;5031849;28;20036;-74
2023/02/06 03:42:36;;;;;;;5.90;1.65;;;14.80;59.80;;;;;;5031911;28;20029;-74
2023/02/06 03:45:05;;;;;;;;;;;14.70;59.80;;;;;;5032281;28;20755;-74
2023/02/06 03:47:32;;;;;;;4.68;1.50;;;14.70;59.70;;;;;;5031930;28;19905;-74
2023/02/06 03:50:00;;;;;;;4.55;1.83;;;14.70;59.80;;;;;;5033092;28;20029;-74
2023/02/06 03:52:35;;;;;;;4.68;1.40;;;14.70;59.80;;;;;;5035803;28;20022;-74
2023/02/06 03:55:07;;;;;;;3.10;1.33;;;14.70;59.90;;;;;;5035457;28;20029;-74
2023/02/06 03:57:34;;;;;;;3.45;1.50;;;14.70;59.80;;;;;;5035395;28;20108;-74
2023/02/06 04:00:00;;;;;;;5.70;1.73;;;14.70;59.80;;;;;;5017868;28;20033;-74
2023/02/06 04:02:27;;;;;;;4.05;1.10;;;14.70;59.70;;;;;;5035013;28;20030;-73
2023/02/06 04:04:53;;;;;;;4.38;1.63;;;14.70;59.70;;;;;;5035432;28;20036;-74
2023/02/06 04:07:27;;;;;;;3.08;1.70;;;14.70;59.80;;;;;;5035538;28;20025;-74
2023/02/06 04:09:53;;;;;;;5.00;1.80;;;14.70;59.80;;;;;;5034992;28;20033;-74
2023/02/06 04:12:19;;;;;;;2.72;1.23;;;14.70;59.80;;;;;;5035187;28;20036;-72
2023/02/06 04:14:45;;;;;;;3.13;1.27;;;14.60;59.70;;;;;;5035016;28;20022;-74
2023/02/06 04:17:12;;;;;;;3.20;1.40;;;14.70;59.80;;;;;;5034953;28;20034;-74
2023/02/06 04:19:38;;;;;;;4.10;1.50;;;14.60;59.80;;;;;;5034942;28;20028;-74
2023/02/06 04:22:06;;;;;;;3.38;1.30;;;14.60;59.80;;;;;;5034833;28;20025;-74
2023/02/06 04:24:31;;;;;;;4.35;1.30;;;14.60;59.80;;;;;;5035097;28;20048;-74
2023/02/06 04:26:58;;;;;;;2.65;1.20;;;14.60;59.80;;;;;;5034977;28;20059;-74
2023/02/06 04:29:24;;;;;;;5.30;1.55;;;14.60;59.90;;;;;;5034781;28;20025;-73
2023/02/06 04:31:49;;;;;;;4.38;1.52;;;14.60;59.80;;;;;;5034711;28;20068;-73
2023/02/06 04:34:15;;;;;;;3.10;1.27;;;14.60;59.80;;;;;;5034704;28;20056;-73
2023/02/06 04:36:41;;;;;;;2.35;1.25;;;14.60;59.80;;;;;;5034650;28;20530;-73
2023/02/06 04:39:06;;;;;;;3.63;1.48;;;14.60;59.80;;;;;;5034501;28;20025;-73
2023/02/06 04:41:32;;;;;;;2.97;1.52;;;14.60;59.80;;;;;;5034636;28;20028;-73
2023/02/06 04:43:58;;;;;;;2.42;1.10;;;14.60;59.80;;;;;;5034454;28;20030;-73
2023/02/06 04:46:24;;;;;;;5.13;1.73;;;14.60;59.80;;;;;;5016812;28;20080;-73
2023/02/06 04:48:50;;;;;;;5.60;1.13;;;14.70;59.90;;;;;;5034542;28;20025;-74
2023/02/06 04:51:15;;;;;;;4.28;1.35;;;14.60;59.80;;;;;;5034242;28;20034;-74
2023/02/06 04:53:41;;;;;;;5.22;1.40;;;14.60;59.80;;;;;;5034391;28;20067;-74
2023/02/06 04:56:11;;;;;;;6.75;1.65;;;14.60;59.80;;;;;;5034494;28;20438;-74
2023/02/06 04:58:37;;;;;;;;;;;14.60;59.80;;;;;;5034715;28;20103;-75
2023/02/06 05:03:38;;;;;;;4.57;1.17;;;14.50;59.80;;;;;;5007533;23;20059;-74
2023/02/06 05:06:04;;;;;;;4.97;1.50;;;14.60;59.80;;;;;;4994798;28;20638;-74
2023/02/06 05:08:30;;;;;;;2.45;1.00;;;14.60;59.80;;;;;;4994746;28;20440;-74
2023/02/06 05:10:56;;;;;;;2.63;1.30;;;14.60;59.90;;;;;;4994583;28;20053;-74
2023/02/06 05:13:22;;;;;;;3.85;1.45;;;14.50;59.80;;;;;;4994784;28;20018;-75
2023/02/06 05:15:49;;;;;;;3.88;1.58;;;14.50;59.80;;;;;;4994467;28;20026;-74
2023/02/06 05:18:15;;;;;;;3.00;1.50;;;14.50;59.80;;;;;;4994872;28;20424;-77
2023/02/06 05:20:42;;;;;;;2.67;1.13;;;14.50;59.80;;;;;;4993668;28;20022;-77
2023/02/06 05:23:08;;;;;;;3.25;1.15;;;14.50;59.70;;;;;;4994352;28;20022;-77
2023/02/06 05:25:35;;;;;;;6.28;1.50;;;14.50;59.80;;;;;;4994652;28;20031;-77
2023/02/06 05:28:05;;;;;;;4.68;1.77;;;14.50;59.80;;;;;;4994694;28;20425;-77
2023/02/06 05:30:33;;;;;;;3.92;1.50;;;14.50;59.80;;;;;;4994753;28;20027;-77
2023/02/06 05:32:59;;;;;;;3.13;1.38;;;14.50;59.70;;;;;;4994471;28;20399;-77
2023/02/06 05:35:25;;;;;;;2.45;1.33;;;14.50;59.80;;;;;;4994473;28;20029;-77
2023/02/06 05:37:51;;;;;;;4.07;1.70;;;14.50;59.80;;;;;;4994506;28;20032;-77
2023/02/06 05:40:17;;;;;;;3.90;1.55;;;14.50;59.70;;;;;;4994049;28;20023;-77
2023/02/06 05:42:43;;;;;;;3.60;1.30;;;14.50;59.70;;;;;;4994120;28;20022;-77
2023/02/06 05:45:09;;;;;;;4.63;1.77;;;14.40;59.60;;;;;;4994267;28;20551;-77
2023/02/06 05:47:35;;;;;;;3.70;1.23;;;14.50;59.60;;;;;;4994224;28;20054;-77
2023/02/06 05:50:01;;;;;;;5.45;1.33;;;14.50;59.80;;;;;;4994150;28;20027;-77
2023/02/06 05:52:27;;;;;;;3.90;1.58;;;14.50;59.70;;;;;;4994165;28;20029;-77
2023/02/06 05:54:53;;;;;;;3.28;1.27;;;14.50;59.70;;;;;;4993752;28;20392;-77
2023/02/06 05:57:19;;;;;;;4.35;1.55;;;14.40;59.60;;;;;;4993874;28;20022;-76
2023/02/06 05:59:45;;;;;;;3.40;1.42;;;14.40;59.70;;;;;;4993613;28;20153;-77
2023/02/06 06:02:11;;;;;;;3.83;1.42;;;14.40;59.70;;;;;;4993625;28;20133;-77
2023/02/06 06:04:36;;;;;;;3.42;1.33;;;14.40;59.80;;;;;;4993579;28;20115;-77
2023/02/06 06:07:03;;;;;;;4.00;1.35;;;14.40;59.80;;;;;;4993813;28;20026;-77
2023/02/06 06:09:29;;;;;;;2.90;1.20;;;14.40;59.80;;;;;;4993574;28;20153;-77
2023/02/06 06:11:55;;;;;;;4.32;1.45;;;14.40;59.70;;;;;;4993265;28;20125;-77
2023/02/06 06:14:21;;;;;;;3.40;1.38;;;14.40;59.70;;;;;;4993082;28;20374;-77
2023/02/06 06:16:47;;;;;;;10.68;1.50;;;14.40;59.70;;;;;;4993616;28;20076;-77
2023/02/06 06:19:13;;;;;;;29.20;3.25;;;14.40;59.80;;;;;;4993342;28;20050;-77
2023/02/06 06:21:39;;;;;;;39.78;5.45;;;14.40;60.00;;;;;;4996951;28;20100;-77
2023/02/06 06:24:05;;;;;;;27.65;5.00;;;14.40;59.90;;;;;;4997944;28;20026;-79
2023/02/06 06:26:31;;;;;;;37.90;5.70;;;14.30;59.90;;;;;;5000713;28;20058;-77
2023/02/06 06:28:56;;;;;;;37.25;5.57;;;14.30;59.90;;;;;;4994425;28;20030;-77
2023/02/06 06:31:22;;;;;;;22.27;5.38;;;14.30;59.90;;;;;;4993352;28;20121;-79
2023/02/06 06:33:48;;;;;;;23.83;5.25;;;14.30;59.90;;;;;;4993113;28;20133;-78
2023/02/06 06:36:14;;;;;;;23.33;4.70;;;14.30;60.00;;;;;;4993196;28;20477;-79
2023/02/06 06:38:39;;;;;;;26.13;4.90;;;14.20;60.00;;;;;;4993424;28;20477;-78
2023/02/06 06:41:06;;;;;;;17.92;4.47;;;14.30;60.60;;;;;;4993047;28;20030;-78
2023/02/06 06:43:32;;;;;;;26.00;5.32;;;14.20;60.00;;;;;;4993120;28;20047;-77
2023/02/06 06:46:00;;;;;;;22.15;5.20;;;14.20;59.90;;;;;;4992995;28;20031;-78
2023/02/06 06:48:25;;;;;;;17.42;5.20;;;14.20;60.00;;;;;;4992956;28;20117;-79
2023/02/06 06:50:51;;;;;;;17.58;4.03;;;14.20;59.90;;;;;;4993102;28;20121;-76
2023/02/06 06:53:17;;;;;;;16.13;4.07;;;14.30;60.00;;;;;;4992832;28;20019;-79
2023/02/06 06:55:43;;;;;;;14.65;4.20;;;14.30;59.90;;;;;;4993032;28;20507;-79
2023/02/06 06:58:09;;;;;;;13.00;3.80;;;14.30;59.90;;;;;;4992823;28;20037;-80
2023/02/06 07:00:34;;;;;;;19.05;4.07;;;14.30;59.90;;;;;;4992797;28;20030;-79
2023/02/06 07:03:00;;;;;;;12.18;3.22;;;14.30;59.90;;;;;;4992532;28;20060;-80
2023/02/06 07:05:26;;;;;;;15.50;3.90;;;14.30;59.90;;;;;;4993077;28;20026;-78
2023/02/06 07:07:52;;;;;;;10.40;3.58;;;14.30;59.90;;;;;;4993086;28;20030;-76
2023/02/06 07:10:18;;;;;;;9.02;3.45;;;14.30;60.00;;;;;;4993011;28;20038;-77
2023/02/06 07:12:43;;;;;;;12.70;3.67;;;14.30;60.10;;;;;;4992658;28;20460;-76
2023/02/06 07:15:10;;;;;;;9.30;3.30;;;14.30;60.00;;;;;;4992939;28;20023;-76
2023/02/06 07:17:36;;;;;;;8.10;3.05;;;14.30;60.00;;;;;;4992904;28;20033;-76
2023/02/06 07:20:03;;;;;;;9.18;2.78;;;14.30;68.40;;;;;;4992755;28;20097;-76
2023/02/06 07:22:29;;;;;;;9.43;2.97;;;14.30;60.00;;;;;;4992585;28;20022;-78
2023/02/06 07:24:54;;;;;;;9.43;3.30;;;14.30;60.00;;;;;;4976880;28;20023;-77
2023/02/06 07:27:20;;;;;;;14.10;3.28;;;14.30;60.80;;;;;;4996678;28;20440;-78
2023/02/06 07:29:46;;;;;;;10.80;3.58;;;14.30;60.00;;;;;;4996424;28;20018;-76
2023/02/06 07:32:12;;;;;;;8.88;3.05;;;14.30;60.00;;;;;;4996517;28;20038;-76
2023/02/06 07:34:39;;;;;;;10.05;3.05;;;14.30;60.00;;;;;;4996658;28;20077;-77
2023/02/06 07:37:05;;;;;;;9.45;2.95;;;14.30;60.00;;;;;;4996536;28;20029;-75
2023/02/06 07:39:31;;;;;;;8.38;3.28;;;14.30;60.00;;;;;;4996362;28;20026;-76
2023/02/06 07:41:57;;;;;;;8.18;3.22;;;14.30;60.00;;;;;;4996241;28;20030;-76
2023/02/06 07:44:22;;;;;;;7.43;2.95;;;14.30;60.00;;;;;;4978576;28;20104;-76
2023/02/06 07:46:48;;;;;;;11.10;2.92;;;14.30;60.00;;;;;;4996262;28;20042;-76
2023/02/06 07:49:14;;;;;;;6.20;2.60;;;14.30;60.00;;;;;;4996087;28;20030;-76
2023/02/06 07:51:41;;;;;;;8.73;2.13;;;14.30;60.10;;;;;;4996047;28;20121;-77
2023/02/06 07:54:07;;;;;;;5.95;2.30;;;14.30;60.00;;;;;;4996027;28;20038;-76
2023/02/06 07:56:32;;;;;;;8.18;2.47;;;14.30;60.10;;;;;;4996021;28;20026;-77
2023/02/06 07:58:58;;;;;;;4.38;2.05;;;14.30;60.00;;;;;;4995990;28;20027;-77
2023/02/06 08:01:24;;;;;;;6.18;2.20;;;14.30;68.40;;;;;;4996021;28;20030;-77
2023/02/06 08:03:53;;;;;;;7.85;2.25;;;14.30;60.00;;;;;;4995739;28;20117;-75
2023/02/06 08:06:21;;;;;;;7.10;2.65;;;14.40;60.10;;;;;;4995783;28;20085;-75
2023/02/06 08:08:47;;;;;;;4.82;1.98;;;14.40;60.70;;;;;;4995803;28;20031;-76
2023/02/06 08:11:16;;;;;;;6.78;2.55;;;14.40;60.10;;;;;;4995795;28;20034;-75
2023/02/06 08:13:42;;;;;;;8.82;2.67;;;14.40;60.10;;;;;;4995737;28;20037;-75
2023/02/06 08:16:15;;;;;;;7.30;2.88;;;14.40;60.20;;;;;;4995614;28;20054;-75
2023/02/06 08:18:41;;;;;;;6.70;2.33;;;14.40;60.30;;;;;;4995636;28;20022;-76
2023/02/06 08:21:10;;;;;;;5.32;2.20;;;14.40;60.30;;;;;;4995582;28;20500;-76
2023/02/06 08:23:37;;;;;;;5.60;2.70;;;14.40;60.40;;;;;;4995612;28;20215;-73
2023/02/06 08:26:06;;;;;;;7.68;2.85;;;14.40;60.30;;;;;;4995450;28;20497;-76
2023/02/06 08:28:34;;;;;;;7.53;2.70;;;14.40;60.40;;;;;;4995403;28;20037;-76
2023/02/06 08:31:01;;;;;;;6.03;2.03;;;14.40;60.20;;;;;;4995343;28;20136;-76
2023/02/06 08:33:26;;;;;;;6.78;2.22;;;14.50;60.20;;;;;;4995278;28;20172;-76
2023/02/06 08:35:52;;;;;;;7.85;2.72;;;14.50;60.30;;;;;;4994693;28;20108;-76
2023/02/06 08:38:18;;;;;;;8.93;2.90;;;14.50;60.40;;;;;;4995187;28;20485;-75
2023/02/06 08:40:44;;;;;;;13.10;2.92;;;14.50;60.20;;;;;;4995280;28;20042;-76
2023/02/06 08:43:10;;;;;;;9.00;2.40;;;14.50;60.40;;;;;;4995123;28;20535;-73
2023/02/06 08:45:36;;;;;;;8.57;2.20;;;14.60;60.40;;;;;;4995010;28;20117;-73
2023/02/06 08:48:02;;;;;;;7.50;2.65;;;14.50;60.30;;;;;;4977833;28;20081;-73
2023/02/06 08:50:27;;;;;;;7.43;2.55;;;14.60;60.40;;;;;;4994646;28;20030;-73
2023/02/06 08:52:54;;;;;;;6.47;2.63;;;14.60;61.10;;;;;;4997145;28;20551;-73
2023/02/06 08:55:20;;;;;;;5.47;2.30;;;14.60;60.40;;;;;;4995336;28;20026;-73
2023/02/06 08:57:45;;;;;;;4.53;2.03;;;14.60;60.50;;;;;;4994961;28;20388;-74
2023/02/06 09:00:11;;;;;;;7.63;2.45;;;14.60;60.40;;;;;;4994935;28;20038;-73
2023/02/06 09:02:37;;;;;;;6.13;2.38;;;14.60;60.50;;;;;;4994469;28;20051;-73
2023/02/06 09:05:03;;;;;;;7.85;2.63;;;14.70;60.60;;;;;;4994780;28;20173;-73
2023/02/06 09:07:29;;;;;;;7.63;2.58;;;14.60;60.40;;;;;;4994721;28;20033;-74
2023/02/06 09:09:55;;;;;;;9.43;2.80;;;14.70;60.50;;;;;;4994537;28;20054;-73
2023/02/06 09:12:21;;;;;;;10.55;3.17;;;14.70;60.50;;;;;;4994473;28;20060;-74
2023/02/06 09:14:46;;;;;;;12.10;3.00;;;14.70;60.20;;;;;;4994541;28;20507;-73
2023/02/06 09:17:12;;;;;;;9.70;2.67;;;14.70;60.20;;;;;;4994321;28;20030;-74
2023/02/06 09:19:38;;;;;;;12.68;2.85;;;14.70;60.20;;;;;;4994223;28;20534;-74
2023/02/06 09:22:03;;;;;;;11.73;3.65;;;14.70;60.20;;;;;;4994487;28;20030;-74
2023/02/06 09:24:31;;;;;;;6.25;2.67;;;14.70;60.20;;;;;;4994298;28;20041;-73
2023/02/06 09:26:57;;;;;;;6.40;2.53;;;14.80;60.30;;;;;;4994618;28;20041;-74
2023/02/06 09:29:23;;;;;;;8.27;3.10;;;14.70;60.20;;;;;;4993759;28;20550;-74
2023/02/06 09:31:49;;;;;;;6.80;2.65;;;14.70;60.20;;;;;;4994105;28;20073;-74
2023/02/06 09:34:15;;;;;;;10.10;3.08;;;14.70;60.30;;;;;;4977236;28;20123;-74
2023/02/06 09:36:41;;;;;;;6.47;2.20;;;14.80;60.40;;;;;;4976958;28;20544;-74
2023/02/06 09:39:08;;;;;;;6.88;1.90;;;14.80;60.40;;;;;;4994143;28;20527;-73
2023/02/06 09:41:46;;;;;;;10.02;3.00;;;14.80;60.30;;;;;;4994111;28;20022;-73
2023/02/06 09:44:14;;;;;;;9.20;2.22;;;14.80;60.30;;;;;;4994054;28;20046;-73
2023/02/06 09:47:03;;;;;;;8.40;2.35;;;14.80;60.40;;;;;;4993515;28;20473;-73
2023/02/06 09:49:38;;;;;;;8.48;2.70;;;14.80;60.40;;;;;;4993963;28;20027;-73
2023/02/06 09:52:28;;;;;;;6.57;2.15;;;14.80;61.00;;;;;;4976907;28;20065;-73
2023/02/06 09:55:05;;;;;;;8.20;2.50;;;14.90;60.40;;;;;;4993963;28;20424;-74
2023/02/06 09:58:02;;;;;;;10.45;2.50;;;14.90;60.40;;;;;;4994032;28;20034;-73
2023/02/06 10:00:51;;;;;;;7.43;2.35;;;14.90;60.40;;;;;;4966622;28;20085;-75
2023/02/06 10:03:32;;;;;;;8.63;2.42;;;14.90;60.40;;;;;;4993460;28;20105;-76
2023/02/06 10:05:57;;;;;;;4.75;1.77;;;14.90;60.50;;;;;;4993642;28;20022;-76
2023/02/06 10:08:24;;;;;;;9.20;2.53;;;14.90;60.40;;;;;;4993642;28;20037;-74
2023/02/06 10:10:57;;;;;;;5.75;2.35;;;14.90;60.40;;;;;;4993386;28;20049;-74
2023/02/06 10:13:49;;;;;;;4.88;2.17;;;15.00;60.50;;;;;;4993647;28;20034;-75
2023/02/06 10:16:29;;;;;;;7.00;2.28;;;15.00;60.60;;;;;;4993523;28;20029;-74
2023/02/06 10:19:08;;;;;;;5.10;1.70;;;15.00;60.70;;;;;;4993450;28;20023;-74
2023/02/06 10:21:57;;;;;;;7.25;1.85;;;15.00;60.70;;;;;;4993710;28;20026;-75
2023/02/06 10:24:33;;;;;;;5.22;2.50;;;15.00;60.70;;;;;;4993300;28;20493;-74
2023/02/06 10:27:04;;;;;;;5.20;2.00;;;15.00;60.70;;;;;;4993559;28;20101;-76
2023/02/06 10:29:32;;;;;;;4.43;1.38;;;15.00;60.70;;;;;;4993230;28;20022;-75
2023/02/06 10:32:22;;;;;;;8.73;2.70;;;15.10;60.80;;;;;;4993121;28;20030;-78
2023/02/06 10:34:54;;;;;;;4.60;1.73;;;15.10;60.80;;;;;;4993367;28;20109;-76
2023/02/06 10:37:50;;;;;;;4.28;1.95;;;15.10;60.80;;;;;;4993146;28;20096;-75
2023/02/06 10:40:48;;;;;;;5.22;2.30;;;15.10;60.90;;;;;;4993111;28;20022;-76
2023/02/06 10:43:17;;;;;;;5.32;1.85;;;15.10;60.80;;;;;;4993106;28;20022;-75
2023/02/06 10:45:58;;;;;;;5.68;1.67;;;15.10;61.00;;;;;;4993016;28;20030;-75
2023/02/06 10:48:39;;;;;;;7.15;2.00;;;15.10;61.10;;;;;;4993342;28;20603;-76
2023/02/06 10:51:11;;;;;;;6.43;1.92;;;15.20;61.20;;;;;;4993270;28;20054;-84
2023/02/06 10:53:49;;;;;;;6.57;2.05;;;15.20;61.10;;;;;;4993628;28;20027;-84
2023/02/06 10:56:21;;;;;;;6.25;1.80;;;15.30;61.00;;;;;;4993302;28;20038;-86
2023/02/06 10:59:01;;;;;;;4.60;2.00;;;15.30;60.80;;;;;;4993118;28;20049;-84
2023/02/06 11:01:34;;;;;;;5.28;1.70;;;15.40;60.80;;;;;;4993268;28;20422;-86
2023/02/06 11:04:13;;;;;;;5.65;1.80;;;15.50;60.60;;;;;;4993624;28;20041;-81
2023/02/06 11:06:41;;;;;;;3.90;1.88;;;15.60;61.10;;;;;;4993245;28;20029;-80
2023/02/06 11:09:09;;;;;;;4.80;2.10;;;15.60;60.70;;;;;;4993077;28;20014;-84
2023/02/06 11:11:46;;;;;;;2.78;1.80;;;15.70;60.70;;;;;;4992953;28;20145;-80
2023/02/06 11:14:30;;;;;;;4.90;2.00;;;15.80;60.80;;;;;;4993019;28;20049;-79
2023/02/06 11:16:58;;;;;;;5.30;2.00;;;15.90;60.60;;;;;;4993068;28;20045;-80
2023/02/06 11:19:37;;;;;;;5.85;1.88;;;15.90;60.40;;;;;;4992971;28;20019;-79
2023/02/06 11:22:25;;;;;;;5.88;1.80;;;15.90;60.30;;;;;;4992986;28;20041;-87
2023/02/06 11:25:17;;;;;;;5.25;1.50;;;16.00;60.20;;;;;;4992932;28;20034;-81
2023/02/06 11:27:43;;;;;;;5.05;2.08;;;16.20;60.10;;;;;;4992813;28;20030;-88
2023/02/06 11:30:25;;;;;;;5.40;1.95;;;16.20;59.90;;;;;;4992485;28;20023;-81
2023/02/06 11:33:00;;;;;;;3.95;1.40;;;16.30;60.00;;;;;;4992811;28;20154;-81
2023/02/06 11:35:36;;;;;;;5.07;1.98;;;16.30;59.90;;;;;;4992828;28;20084;-85
2023/02/06 11:38:24;;;;;;;5.47;1.75;;;16.40;60.00;;;;;;4992618;28;20077;-89
2023/02/06 11:41:05;;;;;;;5.35;1.80;;;16.50;59.80;;;;;;4992680;28;20026;-85
2023/02/06 11:43:44;;;;;;;4.63;1.67;;;16.50;59.90;;;;;;4992819;28;20368;-80
2023/02/06 11:46:14;;;;;;;3.53;1.42;;;16.60;60.00;;;;;;4992637;28;20027;-80
2023/02/06 11:48:59;;;;;;;4.60;1.42;;;16.60;59.90;;;;;;4992514;28;20109;-78
2023/02/06 11:51:53;;;;;;;3.63;1.70;;;16.70;60.00;;;;;;4992483;28;20038;-79
2023/02/06 11:54:33;;;;;;;4.85;1.60;;;16.80;59.90;;;;;;4992459;28;20027;-81
2023/02/06 11:57:21;;;;;;;4.00;1.30;;;16.80;59.90;;;;;;4992433;28;20026;-81
2023/02/06 11:59:53;;;;;;;3.30;1.70;;;16.90;59.80;;;;;;4992504;28;20053;-85
2023/02/06 12:02:37;;;;;;;5.53;1.85;;;16.90;59.80;;;;;;4992189;28;20514;-84
2023/02/06 12:05:11;;;;;;;4.15;1.75;;;17.00;60.50;;;;;;4992364;28;20077;-85
2023/02/06 12:08:01;;;;;;;3.75;1.40;;;17.00;60.00;;;;;;4992466;28;20049;-86
2023/02/06 12:10:31;;;;;;;5.20;1.55;;;17.10;60.00;;;;;;4992881;28;20041;-83
2023/02/06 12:13:11;;;;;;;3.65;1.42;;;17.10;59.90;;;;;;4996011;28;20033;-84
2023/02/06 12:15:42;;;;;;;;;;;17.20;59.80;;;;;;4995271;28;20022;-82
2023/02/06 12:18:46;;;;;;;3.67;1.48;;;17.30;59.70;;;;;;4995347;28;19905;-86
2023/02/06 12:21:25;;;;;;;4.00;1.55;;;17.30;59.50;;;;;;4942091;28;20042;-84
2023/02/06 12:23:56;;;;;;;4.60;1.60;;;17.40;59.40;;;;;;4995786;28;20022;-84
2023/02/06 12:26:27;;;;;;;3.33;1.65;;;17.50;59.40;;;;;;4996083;28;20394;-80
2023/02/06 12:29:14;;;;;;;;;;;17.60;59.40;;;;;;4995699;28;20030;-84
2023/02/06 12:31:46;;;;;;;3.95;1.40;;;17.60;59.40;;;;;;4995522;28;19914;-81
2023/02/06 12:34:18;;;;;;;2.67;1.50;;;17.50;59.40;;;;;;4995423;28;20469;-87
2023/02/06 12:37:24;;;;;;;2.15;1.27;;;17.60;59.60;;;;;;4995584;28;20027;-81
2023/02/06 12:39:51;;;;;;;7.28;1.40;;;17.70;59.60;;;;;;4943289;28;20488;-78
2023/02/06 12:42:23;;;;;;;3.58;1.45;;;17.70;59.40;;;;;;4995590;28;20056;-85
2023/02/06 12:45:24;;;;;;;3.97;1.60;;;17.80;59.40;;;;;;4995648;28;20042;-85
2023/02/06 12:47:52;;;;;;;4.22;1.63;;;17.80;59.40;;;;;;4989990;28;20038;-85
2023/02/06 12:50:37;;;;;;;4.70;1.60;;;17.80;59.50;;;;;;4995240;28;20121;-83
2023/02/06 12:53:15;;;;;;;3.97;1.75;;;17.80;59.60;;;;;;4995241;28;20037;-81
2023/02/06 12:55:49;;;;;;;2.95;1.50;;;17.80;59.80;;;;;;4995237;28;20117;-85
2023/02/06 12:58:34;;;;;;;4.80;1.60;;;17.70;60.00;;;;;;4995323;28;20440;-86
2023/02/06 13:01:17;;;;;;;5.90;1.60;;;17.70;60.20;;;;;;4995109;28;20089;-83
2023/02/06 13:03:54;;;;;;;4.18;1.60;;;17.70;60.20;;;;;;4995008;28;20054;-83
2023/02/06 13:06:22;;;;;;;4.47;1.38;;;17.70;60.20;;;;;;4995013;28;20026;-87
2023/02/06 13:08:57;;;;;;;3.90;1.30;;;17.80;60.30;;;;;;4995016;28;20380;-87
2023/02/06 13:11:28;;;;;;;4.70;2.10;;;17.70;60.40;;;;;;4994953;28;20053;-88